Lana Louise — WDC2702 — position and weather

sailwx.info

Track history (hours):
 
Tides and Currents Weather Stations Pressure Air Temp Water Temp Dewpoint Dewpoint Depression Visibility Wind Speed Wind Dir Waves Ship Positions

Lana Louise

Owner: Kirby Inland Marine LP, Houston, TX. More information available from US FCC via Universal Licensing System and Coast Guard Vessel Documentation Center.

Last reported at 2017-Sep-25 06:30 UTC. Time now 2017-Sep-25 06:36 UTC.
Position N 29°45' W 095°06'.

Length 17 m; draft 2.6 m.

Type: . MMSI: 366996580.

Date/timePositionNaut miles runAvg speedWind from/ knotsBaromVisibWave heightAir tempDewpointWater temp
2017-Sep-25 06:30N 29°45' W 095°06'0 0.0
2017-Sep-25 05:46N 29°46' W 095°06'0 0.0
2017-Sep-24 17:31N 29°46' W 095°06'0 5.2
2017-Sep-24 17:29N 29°46' W 095°05'0 0.0
2017-Sep-24 14:21N 29°46' W 095°05'0 0.0
2017-Sep-24 09:38N 29°46' W 095°05'1 0.8
2017-Sep-24 08:56N 29°45' W 095°06'0 0.0
2017-Sep-24 03:05N 29°46' W 095°06'0 0.1
2017-Sep-24 03:00N 29°46' W 095°06'  
2017-Sep-21 21:02N 29°45' W 095°06'0 4.6
2017-Sep-21 20:59N 29°46' W 095°06'1 0.1
2017-Sep-20 23:13N 29°44' W 095°07'1 4.3
2017-Sep-20 23:00N 29°45' W 095°06'0 0.1
2017-Sep-20 18:38N 29°45' W 095°06'0 2.0
2017-Sep-20 18:30N 29°46' W 095°05'0 0.1
2017-Sep-20 16:16N 29°46' W 095°06'0 0.1
2017-Sep-20 13:47N 29°45' W 095°06'0 0.0
2017-Sep-19 21:38N 29°46' W 095°06'0 0.0
2017-Sep-19 12:06N 29°46' W 095°06'0 0.0
2017-Sep-19 12:00N 29°46' W 095°06'0 0.0
2017-Sep-19 11:24N 29°46' W 095°06'0 0.0
2017-Sep-19 11:00N 29°46' W 095°06'0 0.0
2017-Sep-19 10:27N 29°46' W 095°06'0 0.0
2017-Sep-19 10:00N 29°46' W 095°06'0 0.0
2017-Sep-19 09:27N 29°46' W 095°06'0 0.0
2017-Sep-19 08:57N 29°46' W 095°06'0 0.0
2017-Sep-19 08:27N 29°46' W 095°06'0 0.0
2017-Sep-19 07:57N 29°46' W 095°06'0 0.0
2017-Sep-19 07:24N 29°46' W 095°06'0 0.0
2017-Sep-19 06:54N 29°46' W 095°06'0 0.0
2017-Sep-19 06:30N 29°46' W 095°06'0 0.0
2017-Sep-19 05:29N 29°46' W 095°06'0 0.0
2017-Sep-19 04:47N 29°46' W 095°06'0 0.0
2017-Sep-19 04:29N 29°46' W 095°06'0 0.0
2017-Sep-19 03:56N 29°46' W 095°06'0 0.0
2017-Sep-19 02:44N 29°46' W 095°06'0 0.0
2017-Sep-19 02:17N 29°46' W 095°06'0 0.0
2017-Sep-19 01:56N 29°46' W 095°06'0 0.0
2017-Sep-19 01:26N 29°46' W 095°06'0 0.0
2017-Sep-19 00:50N 29°46' W 095°06'0 0.0
2017-Sep-19 00:29N 29°46' W 095°06'0 0.0
2017-Sep-18 23:23N 29°46' W 095°06'0 0.0
2017-Sep-18 22:56N 29°46' W 095°06'0 0.0
2017-Sep-18 22:29N 29°46' W 095°06'0 0.0
2017-Sep-18 21:47N 29°46' W 095°06'0 0.0
2017-Sep-18 21:21N 29°46' W 095°06'0 0.1
2017-Sep-18 20:52N 29°46' W 095°06'0 0.1
2017-Sep-18 20:27N 29°46' W 095°06'0 0.4
2017-Sep-18 19:58N 29°46' W 095°06'0 0.3
2017-Sep-18 19:13N 29°46' W 095°06'0 0.0
2017-Sep-18 19:00N 29°46' W 095°06'0 0.2
2017-Sep-18 17:53N 29°46' W 095°06'0 0.5
2017-Sep-18 17:23N 29°46' W 095°06'0 0.0
2017-Sep-18 16:28N 29°46' W 095°06'0 0.0
2017-Sep-17 16:56N 29°46' W 095°05'1 1.7
2017-Sep-17 16:14N 29°46' W 095°04'1 4.6
2017-Sep-17 15:57N 29°44' W 095°03'2 4.0
2017-Sep-17 15:30N 29°44' W 095°02'2 4.0
2017-Sep-17 14:58N 29°42' W 095°00'2 4.8
2017-Sep-17 14:31N 29°40' W 094°59'2 5.0
2017-Sep-17 14:01N 29°38' W 094°58'2 4.8
2017-Sep-17 13:31N 29°36' W 094°57'2 5.0
2017-Sep-17 13:01N 29°34' W 094°55'3 5.5
2017-Sep-17 12:30N 29°31' W 094°53'2 0.1
2017-Sep-17 00:12N 29°30' W 094°52'1 5.1
2017-Sep-16 23:57N 29°31' W 094°53'2 4.9
2017-Sep-16 23:30N 29°33' W 094°54'2 4.7
2017-Sep-16 23:00N 29°35' W 094°56'2 4.7
2017-Sep-16 22:30N 29°37' W 094°57'2 5.0
2017-Sep-16 22:00N 29°39' W 094°58'3 5.3
2017-Sep-16 21:30N 29°41' W 094°59'2 4.6
2017-Sep-16 21:00N 29°43' W 095°01'2 4.7
2017-Sep-16 20:30N 29°44' W 095°04'2 1.5
2017-Sep-16 19:03N 29°46' W 095°05'0 0.4
2017-Sep-16 18:57N 29°46' W 095°05'0 0.1
2017-Sep-16 18:29N 29°46' W 095°05'0 0.0
2017-Sep-16 03:15N 29°46' W 095°05'0 0.0
2017-Sep-16 03:00N 29°46' W 095°05'0 0.0
2017-Sep-15 19:16N 29°46' W 095°05'1 0.1
2017-Sep-15 08:47N 29°45' W 095°06'  
Track history (hours):
 
Tides and Currents Weather Stations Pressure Air Temp Water Temp Dewpoint Dewpoint Depression Visibility Wind Speed Wind Dir Waves Ship Positions

Lana Louise

Owner: Kirby Inland Marine LP, Houston, TX. More information available from US FCC via Universal Licensing System and Coast Guard Vessel Documentation Center.

Last reported at 2017-Sep-25 06:30 UTC. Time now 2017-Sep-25 06:36 UTC.
Position N 29°45' W 095°06'.

Length 17 m; draft 2.6 m.

Type: . MMSI: 366996580.

Date/timePositionNaut miles runAvg speedWind from/ knotsBaromVisibWave heightAir tempDewpointWater temp
2017-Sep-25 06:30N 29°45' W 095°06'0 0.0
2017-Sep-25 05:46N 29°46' W 095°06'0 0.0
2017-Sep-24 17:31N 29°46' W 095°06'0 5.2
2017-Sep-24 17:29N 29°46' W 095°05'0 0.0
2017-Sep-24 14:21N 29°46' W 095°05'0 0.0
2017-Sep-24 09:38N 29°46' W 095°05'1 0.8
2017-Sep-24 08:56N 29°45' W 095°06'0 0.0
2017-Sep-24 03:05N 29°46' W 095°06'0 0.1
2017-Sep-24 03:00N 29°46' W 095°06'  
2017-Sep-21 21:02N 29°45' W 095°06'0 4.6
2017-Sep-21 20:59N 29°46' W 095°06'1 0.1
2017-Sep-20 23:13N 29°44' W 095°07'1 4.3
2017-Sep-20 23:00N 29°45' W 095°06'0 0.1
2017-Sep-20 18:38N 29°45' W 095°06'0 2.0
2017-Sep-20 18:30N 29°46' W 095°05'0 0.1
2017-Sep-20 16:16N 29°46' W 095°06'0 0.1
2017-Sep-20 13:47N 29°45' W 095°06'0 0.0
2017-Sep-19 21:38N 29°46' W 095°06'0 0.0
2017-Sep-19 12:06N 29°46' W 095°06'0 0.0
2017-Sep-19 12:00N 29°46' W 095°06'0 0.0
2017-Sep-19 11:24N 29°46' W 095°06'0 0.0
2017-Sep-19 11:00N 29°46' W 095°06'0 0.0
2017-Sep-19 10:27N 29°46' W 095°06'0 0.0
2017-Sep-19 10:00N 29°46' W 095°06'0 0.0
2017-Sep-19 09:27N 29°46' W 095°06'0 0.0
2017-Sep-19 08:57N 29°46' W 095°06'0 0.0
2017-Sep-19 08:27N 29°46' W 095°06'0 0.0
2017-Sep-19 07:57N 29°46' W 095°06'0 0.0
2017-Sep-19 07:24N 29°46' W 095°06'0 0.0
2017-Sep-19 06:54N 29°46' W 095°06'0 0.0
2017-Sep-19 06:30N 29°46' W 095°06'0 0.0
2017-Sep-19 05:29N 29°46' W 095°06'0 0.0
2017-Sep-19 04:47N 29°46' W 095°06'0 0.0
2017-Sep-19 04:29N 29°46' W 095°06'0 0.0
2017-Sep-19 03:56N 29°46' W 095°06'0 0.0
2017-Sep-19 02:44N 29°46' W 095°06'0 0.0
2017-Sep-19 02:17N 29°46' W 095°06'0 0.0
2017-Sep-19 01:56N 29°46' W 095°06'0 0.0
2017-Sep-19 01:26N 29°46' W 095°06'0 0.0
2017-Sep-19 00:50N 29°46' W 095°06'0 0.0
2017-Sep-19 00:29N 29°46' W 095°06'0 0.0
2017-Sep-18 23:23N 29°46' W 095°06'0 0.0
2017-Sep-18 22:56N 29°46' W 095°06'0 0.0
2017-Sep-18 22:29N 29°46' W 095°06'0 0.0
2017-Sep-18 21:47N 29°46' W 095°06'0 0.0
2017-Sep-18 21:21N 29°46' W 095°06'0 0.1
2017-Sep-18 20:52N 29°46' W 095°06'0 0.1
2017-Sep-18 20:27N 29°46' W 095°06'0 0.4
2017-Sep-18 19:58N 29°46' W 095°06'0 0.3
2017-Sep-18 19:13N 29°46' W 095°06'0 0.0
2017-Sep-18 19:00N 29°46' W 095°06'0 0.2
2017-Sep-18 17:53N 29°46' W 095°06'0 0.5
2017-Sep-18 17:23N 29°46' W 095°06'0 0.0
2017-Sep-18 16:28N 29°46' W 095°06'0 0.0
2017-Sep-17 16:56N 29°46' W 095°05'1 1.7
2017-Sep-17 16:14N 29°46' W 095°04'1 4.6
2017-Sep-17 15:57N 29°44' W 095°03'2 4.0
2017-Sep-17 15:30N 29°44' W 095°02'2 4.0
2017-Sep-17 14:58N 29°42' W 095°00'2 4.8
2017-Sep-17 14:31N 29°40' W 094°59'2 5.0
2017-Sep-17 14:01N 29°38' W 094°58'2 4.8
2017-Sep-17 13:31N 29°36' W 094°57'2 5.0
2017-Sep-17 13:01N 29°34' W 094°55'3 5.5
2017-Sep-17 12:30N 29°31' W 094°53'2 0.1
2017-Sep-17 00:12N 29°30' W 094°52'1 5.1
2017-Sep-16 23:57N 29°31' W 094°53'2 4.9
2017-Sep-16 23:30N 29°33' W 094°54'2 4.7
2017-Sep-16 23:00N 29°35' W 094°56'2 4.7
2017-Sep-16 22:30N 29°37' W 094°57'2 5.0
2017-Sep-16 22:00N 29°39' W 094°58'3 5.3
2017-Sep-16 21:30N 29°41' W 094°59'2 4.6
2017-Sep-16 21:00N 29°43' W 095°01'2 4.7
2017-Sep-16 20:30N 29°44' W 095°04'2 1.5
2017-Sep-16 19:03N 29°46' W 095°05'0 0.4
2017-Sep-16 18:57N 29°46' W 095°05'0 0.1
2017-Sep-16 18:29N 29°46' W 095°05'0 0.0
2017-Sep-16 03:15N 29°46' W 095°05'0 0.0
2017-Sep-16 03:00N 29°46' W 095°05'0 0.0
2017-Sep-15 19:16N 29°46' W 095°05'1 0.1
2017-Sep-15 08:47N 29°45' W 095°06'  

Dump ship's entire track history